Time;durP1;ratioP1;P1;durP2;ratioP2;P2;SDS_P1;SDS_P2;PMS_P1;PMS_P2;Temp;Humidity;BMP_temperature;BMP_pressure;BME280_temperature;BME280_humidity;BME280_pressure;Samples;Min_cycle;Max_cycle;Signal;HPM_P1;HPM_P2
2021/07/22 00:00:10;;;;;;;14.82;9.50;;;;;;;21.50;43.53;99560.31;5014326;28;20026;-69
2021/07/22 00:02:35;;;;;;;14.10;10.35;;;;;;;21.29;43.87;99555.47;5013659;28;20057;-69
2021/07/22 00:05:01;;;;;;;15.43;10.70;;;;;;;21.45;43.69;99563.59;5013694;28;20072;-70
2021/07/22 00:07:27;;;;;;;13.35;9.43;;;;;;;21.40;43.83;99559.13;5012214;28;20075;-70
2021/07/22 00:09:52;;;;;;;15.13;10.25;;;;;;;21.26;44.22;99561.97;5012898;28;20076;-72
2021/07/22 00:12:18;;;;;;;14.18;9.88;;;;;;;21.38;43.71;99558.72;5013644;28;20026;-70
2021/07/22 00:14:43;;;;;;;13.90;10.18;;;;;;;21.44;43.72;99565.59;5011631;28;20099;-72
2021/07/22 00:17:09;;;;;;;13.75;9.25;;;;;;;21.34;43.97;99557.88;5013267;28;20054;-72
2021/07/22 00:19:36;;;;;;;16.23;9.38;;;;;;;21.42;43.84;99555.88;5013677;28;20121;-71
2021/07/22 00:22:02;;;;;;;15.27;10.45;;;;;;;21.30;44.13;99559.94;5013436;28;20540;-72
2021/07/22 00:24:28;;;;;;;12.52;9.43;;;;;;;21.23;44.18;99560.75;5013599;28;20030;-72
2021/07/22 00:26:54;;;;;;;16.42;11.57;;;;;;;21.35;44.05;99559.50;5012263;28;20037;-72
2021/07/22 00:29:20;;;;;;;15.43;10.38;;;;;;;21.23;44.26;99551.38;5003382;28;20150;-70
2021/07/22 00:31:49;;;;;;;15.05;10.20;;;;;;;21.28;44.03;99556.69;5008239;28;20073;-71
2021/07/22 00:34:14;;;;;;;16.33;10.65;;;;;;;21.22;44.45;99556.28;5005097;28;20056;-71
2021/07/22 00:36:40;;;;;;;15.75;10.18;;;;;;;21.24;44.37;99558.72;5011664;28;20057;-69
2021/07/22 00:39:05;;;;;;;15.02;9.57;;;;;;;21.29;44.42;99552.63;5013363;28;20045;-70
2021/07/22 00:41:37;;;;;;;12.95;10.20;;;;;;;21.26;44.28;99559.13;5012702;28;20042;-72
2021/07/22 00:44:03;;;;;;;14.85;10.60;;;;;;;21.32;44.25;99561.16;5010922;28;20029;-72
2021/07/22 00:46:28;;;;;;;16.45;10.57;;;;;;;21.40;44.01;99559.13;5001606;28;20034;-69
2021/07/22 00:48:54;;;;;;;24.52;10.85;;;;;;;21.08;44.66;99559.91;5011607;28;20116;-71
2021/07/22 00:51:19;;;;;;;12.98;9.25;;;;;;;21.32;44.05;99557.47;5012233;28;20026;-72
2021/07/22 00:53:44;;;;;;;13.05;9.60;;;;;;;21.16;44.33;99561.56;5010612;28;20034;-70
2021/07/22 00:56:10;;;;;;;14.05;10.02;;;;;;;21.16;44.60;99552.19;5011433;28;20169;-72
2021/07/22 00:58:35;;;;;;;12.85;9.40;;;;;;;21.22;44.44;99550.59;5012613;28;20034;-69
2021/07/22 01:01:01;;;;;;;16.00;10.75;;;;;;;21.08;44.79;99554.22;5012116;28;20025;-71
2021/07/22 01:03:26;;;;;;;13.50;10.23;;;;;;;21.04;44.94;99550.56;5012821;28;20036;-72
2021/07/22 01:05:52;;;;;;;15.30;9.68;;;;;;;20.91;45.53;99550.16;5011554;28;20116;-69
2021/07/22 01:08:17;;;;;;;16.15;9.27;;;;;;;21.00;45.08;99547.72;5012592;28;20492;-71
2021/07/22 01:10:42;;;;;;;13.57;9.45;;;;;;;21.13;44.99;99536.78;5011342;28;20034;-72
2021/07/22 01:13:08;;;;;;;15.32;10.73;;;;;;;21.12;45.03;99546.53;5011302;28;20096;-69
2021/07/22 01:15:33;;;;;;;12.43;10.13;;;;;;;21.14;44.95;99541.25;5012214;28;20558;-72
2021/07/22 01:17:59;;;;;;;15.48;10.10;;;;;;;21.02;45.37;99550.97;5012304;28;20045;-70
2021/07/22 01:20:26;;;;;;;22.88;11.60;;;;;;;20.99;45.36;99550.97;5011677;28;20041;-70
2021/07/22 01:22:54;;;;;;;14.88;9.95;;;;;;;20.81;45.73;99556.59;5011791;28;20032;-70
2021/07/22 01:25:20;;;;;;;11.50;9.05;;;;;;;20.87;45.69;99552.97;5012300;28;20152;-72
2021/07/22 01:27:47;;;;;;;14.55;9.63;;;;;;;20.80;46.09;99558.63;5011964;28;20037;-70
2021/07/22 01:30:16;;;;;;;14.95;10.52;;;;;;;20.79;45.84;99551.34;5011688;28;20030;-69
2021/07/22 01:32:42;;;;;;;18.20;10.57;;;;;;;20.81;45.78;99560.28;5004977;28;20033;-70
2021/07/22 01:35:10;;;;;;;16.13;10.27;;;;;;;20.83;45.58;99555.00;5012380;28;20030;-71
2021/07/22 01:37:37;;;;;;;15.07;10.85;;;;;;;20.80;46.19;99555.78;5011973;28;20057;-70
2021/07/22 01:40:04;;;;;;;13.80;10.02;;;;;;;20.83;45.87;99552.16;5011546;28;20050;-69
2021/07/22 01:42:31;;;;;;;14.73;10.57;;;;;;;20.77;46.31;99556.59;5011943;28;20042;-72
2021/07/22 01:44:56;;;;;;;13.55;11.00;;;;;;;20.80;46.11;99555.78;5011743;28;20057;-72
2021/07/22 01:47:21;;;;;;;17.27;10.63;;;;;;;20.97;45.73;99556.25;5011810;28;20033;-70
2021/07/22 01:49:47;;;;;;;13.93;9.68;;;;;;;20.78;46.14;99552.53;5009779;28;20026;-70
2021/07/22 01:52:12;;;;;;;16.02;11.40;;;;;;;20.73;46.21;99553.75;5008308;28;20041;-72
2021/07/22 01:54:38;;;;;;;15.63;10.45;;;;;;;20.60;46.57;99552.50;5002947;28;20471;-69
2021/07/22 01:57:04;;;;;;;15.48;11.75;;;;;;;20.69;46.56;99563.47;5011531;28;20022;-69
2021/07/22 01:59:36;;;;;;;24.63;11.38;;;;;;;20.70;46.58;99556.59;5011418;28;20451;-69
2021/07/22 02:02:03;;;;;;;15.25;10.82;;;;;;;20.72;46.40;99559.81;5011483;28;20487;-69
2021/07/22 02:04:28;;;;;;;13.43;10.18;;;;;;;20.74;46.45;99554.56;5011963;28;20050;-71
2021/07/22 02:06:54;;;;;;;16.15;11.05;;;;;;;20.64;46.71;99546.84;5010004;28;20034;-72
2021/07/22 02:09:19;;;;;;;17.08;10.93;;;;;;;20.50;47.14;99554.09;5010722;28;20029;-69
2021/07/22 02:11:45;;;;;;;12.32;10.07;;;;;;;20.45;47.04;99545.97;5010136;28;20396;-71
2021/07/22 02:14:11;;;;;;;13.85;10.38;;;;;;;20.39;47.61;99547.56;5011633;28;20498;-72
2021/07/22 02:16:39;;;;;;;16.83;10.60;;;;;;;20.41;47.39;99545.16;5011276;28;20026;-70
2021/07/22 02:19:04;;;;;;;26.35;10.98;;;;;;;20.69;46.73;99554.97;5010468;28;20050;-69
2021/07/22 02:21:30;;;;;;;15.18;9.93;;;;;;;20.50;47.20;99554.09;5010884;28;20045;-69
2021/07/22 02:23:55;;;;;;;16.55;10.32;;;;;;;20.50;47.27;99556.13;5011299;28;20392;-72
2021/07/22 02:26:21;;;;;;;15.32;11.27;;;;;;;20.52;47.25;99554.53;5011306;28;20479;-69
2021/07/22 02:28:46;;;;;;;18.52;10.75;;;;;;;20.39;47.42;99558.91;5008887;28;20076;-69
2021/07/22 02:31:12;;;;;;;15.15;10.07;;;;;;;20.54;46.95;99552.09;5010849;28;20037;-69
2021/07/22 02:33:37;;;;;;;15.40;11.50;;;;;;;20.55;46.84;99553.72;5009796;28;20021;-71
2021/07/22 02:36:03;;;;;;;16.52;10.13;;;;;;;20.47;46.90;99555.72;5010297;28;20025;-69
2021/07/22 02:38:29;;;;;;;13.93;10.30;;;;;;;20.34;47.23;99554.47;5010925;28;20029;-69
2021/07/22 02:40:54;;;;;;;14.35;9.88;;;;;;;20.37;46.94;99565.00;5010923;28;20180;-71
2021/07/22 02:43:19;;;;;;;21.85;10.93;;;;;;;20.30;47.25;99567.81;5010918;28;20036;-70
2021/07/22 02:45:45;;;;;;;13.38;10.43;;;;;;;20.45;47.02;99558.16;5010926;28;20042;-72
2021/07/22 02:48:10;;;;;;;14.15;9.90;;;;;;;20.51;46.90;99555.72;5009919;28;20040;-69
2021/07/22 02:50:36;;;;;;;19.67;10.63;;;;;;;20.37;47.20;99562.16;5005464;28;20030;-71
2021/07/22 02:53:03;;;;;;;13.63;10.40;;;;;;;20.47;46.68;99561.41;5010809;28;20499;-72
2021/07/22 02:55:28;;;;;;;19.77;10.77;;;;;;;20.36;47.09;99568.25;5010022;28;20022;-69
2021/07/22 02:57:54;;;;;;;15.27;9.43;;;;;;;20.28;47.44;99571.06;5009482;28;20026;-72
2021/07/22 03:00:19;;;;;;;16.70;9.50;;;;;;;20.46;46.98;99570.31;5010606;28;20040;-69
2021/07/22 03:02:45;;;;;;;17.98;10.70;;;;;;;20.40;47.34;99567.03;5009419;28;20026;-69
2021/07/22 03:05:10;;;;;;;13.63;10.43;;;;;;;20.41;47.30;99573.56;5010176;28;20033;-69
2021/07/22 03:07:36;;;;;;;18.38;10.40;;;;;;;20.41;47.00;99577.19;5010638;28;20041;-69
2021/07/22 03:10:02;;;;;;;15.90;10.82;;;;;;;20.50;47.02;99582.50;5010963;28;20068;-69
2021/07/22 03:12:27;;;;;;;14.43;9.75;;;;;;;20.51;47.12;99571.97;5002963;28;20706;-72
2021/07/22 03:14:53;;;;;;;19.90;10.35;;;;;;;20.61;46.74;99571.97;5010694;28;20042;-72
2021/07/22 03:17:18;;;;;;;16.33;10.10;;;;;;;20.54;47.06;99576.81;5009592;28;20050;-69
2021/07/22 03:19:44;;;;;;;17.42;9.90;;;;;;;20.54;47.17;99580.50;5010905;28;20034;-69
2021/07/22 03:22:09;;;;;;;15.05;10.50;;;;;;;20.27;48.06;99577.13;5008072;28;20053;-69
2021/07/22 03:24:35;;;;;;;15.15;9.57;;;;;;;20.41;47.43;99579.22;5010528;28;20021;-70
2021/07/22 03:27:01;;;;;;;15.93;10.25;;;;;;;20.45;47.49;99575.19;5003710;28;20488;-72
2021/07/22 03:29:26;;;;;;;21.85;9.63;;;;;;;20.49;47.58;99580.88;5011633;28;20037;-72
2021/07/22 03:31:52;;;;;;;16.85;10.35;;;;;;;20.34;48.02;99580.03;5008923;28;20423;-72
2021/07/22 03:34:18;;;;;;;14.80;10.18;;;;;;;20.43;47.88;99577.59;5009670;28;20488;-69
2021/07/22 03:36:47;;;;;;;16.02;9.57;;;;;;;20.38;47.73;99580.00;5009463;28;20030;-72
2021/07/22 03:39:12;;;;;;;14.85;9.82;;;;;;;20.39;48.12;99588.16;5009821;28;20033;-69
2021/07/22 03:41:45;;;;;;;12.80;9.63;;;;;;;20.44;47.98;99578.44;5008710;28;20407;-69
2021/07/22 03:44:11;;;;;;;24.58;10.60;;;;;;;20.44;48.03;99581.25;5010482;28;20109;-72
2021/07/22 03:46:36;;;;;;;17.08;10.23;;;;;;;20.43;47.97;99580.44;5010247;28;20104;-69
2021/07/22 03:49:02;;;;;;;11.98;9.05;;;;;;;20.45;48.02;99585.72;5010438;28;20025;-69
2021/07/22 03:51:27;;;;;;;16.63;9.75;;;;;;;20.52;47.99;99585.78;5009396;28;20042;-72
2021/07/22 03:53:53;;;;;;;14.13;10.20;;;;;;;20.61;48.24;99589.03;5008548;28;20038;-74
2021/07/22 03:56:18;;;;;;;15.10;10.30;;;;;;;20.56;48.27;99586.59;5008547;28;20081;-74
2021/07/22 03:58:44;;;;;;;17.23;9.80;;;;;;;20.62;48.09;99593.50;5009965;28;20025;-73
2021/07/22 04:01:09;;;;;;;12.90;9.93;;;;;;;20.66;48.44;99592.72;5008835;28;20038;-80
2021/07/22 04:03:37;;;;;;;16.02;10.20;;;;;;;20.61;48.45;99589.03;5009755;28;20053;-73
2021/07/22 04:06:03;;;;;;;16.15;10.52;;;;;;;21.03;47.46;99591.59;4999324;28;20041;-79
2021/07/22 04:08:28;;;;;;;20.95;10.77;;;;;;;20.84;47.93;99585.06;5008737;28;20037;-72
2021/07/22 04:10:54;;;;;;;18.08;9.93;;;;;;;20.85;48.14;99591.56;5007730;28;20042;-71
2021/07/22 04:13:19;;;;;;;17.15;9.45;;;;;;;20.88;48.21;99591.59;5007377;28;20406;-71
2021/07/22 04:15:45;;;;;;;17.23;10.57;;;;;;;20.85;48.62;99592.38;5008375;28;20034;-73
2021/07/22 04:18:10;;;;;;;15.68;9.70;;;;;;;20.65;49.35;99593.94;5011423;28;20054;-72
2021/07/22 04:20:35;;;;;;;17.13;10.32;;;;;;;20.76;49.21;99589.09;5010843;28;20038;-70
2021/07/22 04:23:01;;;;;;;22.77;9.88;;;;;;;20.79;49.01;99591.13;5012514;28;20026;-73
2021/07/22 04:25:27;;;;;;;14.70;9.00;;;;;;;20.74;49.46;99591.50;5013160;28;20037;-72
2021/07/22 04:27:52;;;;;;;18.58;10.80;;;;;;;20.71;49.49;99595.16;5011187;28;20528;-71
2021/07/22 04:30:18;;;;;;;14.20;9.48;;;;;;;20.66;49.74;99599.19;5013402;28;20060;-72
2021/07/22 04:32:46;;;;;;;31.50;12.07;;;;;;;20.77;49.44;99594.34;5013317;28;20030;-71
2021/07/22 04:35:12;;;;;;;25.90;13.88;;;;;;;20.78;49.51;99600.88;5013625;28;20029;-71
2021/07/22 04:37:38;;;;;;;26.45;15.50;;;;;;;20.79;49.29;99599.66;5013175;28;20041;-71
2021/07/22 04:40:06;;;;;;;21.08;13.30;;;;;;;20.87;49.26;99595.63;5010928;28;20038;-73
2021/07/22 04:42:35;;;;;;;26.33;15.18;;;;;;;20.93;49.09;99598.88;5009870;28;20092;-71
2021/07/22 04:45:00;;;;;;;25.77;16.30;;;;;;;20.94;49.31;99599.69;5011764;28;20029;-73
2021/07/22 04:47:26;;;;;;;22.80;13.38;;;;;;;20.97;49.59;99601.72;5011223;28;20038;-73
2021/07/22 04:49:51;;;;;;;24.65;13.05;;;;;;;20.86;49.65;99610.25;5013466;28;20041;-71
2021/07/22 04:52:17;;;;;;;76.97;39.97;;;;;;;20.90;49.21;99613.91;4997953;28;20064;-70
2021/07/22 04:54:43;;;;;;;27.73;15.07;;;;;;;20.77;49.90;99608.56;5011827;28;20037;-71
2021/07/22 04:57:09;;;;;;;22.25;13.38;;;;;;;20.83;49.64;99609.00;5011274;28;20038;-73
2021/07/22 04:59:34;;;;;;;22.20;12.70;;;;;;;20.89;49.41;99615.13;5012000;28;20057;-73
2021/07/22 05:02:00;;;;;;;50.47;21.50;;;;;;;21.17;49.25;99608.69;5012565;28;20531;-74
2021/07/22 05:04:25;;;;;;;41.65;15.75;;;;;;;21.28;49.00;99620.06;5013026;28;20057;-72
2021/07/22 05:06:51;;;;;;;18.25;11.07;;;;;;;21.34;48.89;99620.47;5011924;28;20034;-75
2021/07/22 05:09:16;;;;;;;22.02;11.65;;;;;;;21.38;48.82;99632.69;5012562;28;20033;-75
2021/07/22 05:11:41;;;;;;;19.05;11.20;;;;;;;21.42;48.75;99636.31;5011374;28;20491;-74
2021/07/22 05:14:07;;;;;;;18.02;10.23;;;;;;;21.53;48.26;99629.81;5011292;28;20035;-72
2021/07/22 05:16:33;;;;;;;16.83;10.13;;;;;;;21.51;48.50;99635.13;5011337;28;20045;-74
2021/07/22 05:18:59;;;;;;;14.73;9.88;;;;;;;21.54;48.75;99631.44;5012226;28;20129;-74
2021/07/22 05:21:24;;;;;;;17.02;10.25;;;;;;;21.65;48.70;99623.72;5012328;28;20026;-72
2021/07/22 05:23:50;;;;;;;16.17;10.93;;;;;;;21.72;48.62;99626.63;5012373;28;20033;-73
2021/07/22 05:26:16;;;;;;;13.55;9.65;;;;;;;21.93;48.23;99615.59;5011433;28;20034;-74
2021/07/22 05:28:41;;;;;;;12.98;9.68;;;;;;;21.98;47.85;99616.00;5011360;28;20033;-74
2021/07/22 05:31:11;;;;;;;14.10;9.20;;;;;;;22.00;48.14;99621.25;5010933;28;20033;-74
2021/07/22 05:33:38;;;;;;;14.93;8.93;;;;;;;22.16;47.97;99623.66;4998873;28;20029;-74
2021/07/22 05:36:06;;;;;;;12.60;9.85;;;;;;;22.21;47.37;99625.28;5011138;28;20084;-74
2021/07/22 05:38:33;;;;;;;15.77;9.90;;;;;;;22.19;47.56;99620.00;5011944;28;20049;-74
2021/07/22 05:40:59;;;;;;;13.13;9.15;;;;;;;22.33;46.54;99627.69;5011920;28;20066;-72
2021/07/22 05:43:26;;;;;;;12.70;9.52;;;;;;;22.32;47.10;99616.69;5011845;28;20034;-74
2021/07/22 05:45:52;;;;;;;14.05;9.75;;;;;;;22.50;46.87;99616.66;5009972;28;20038;-82
2021/07/22 05:48:18;;;;;;;24.92;9.35;;;;;;;22.50;46.71;99614.63;5012321;28;20041;-79
2021/07/22 05:50:43;;;;;;;18.00;9.55;;;;;;;22.67;46.47;99614.94;5012024;28;20488;-77
2021/07/22 05:53:09;;;;;;;18.52;10.35;;;;;;;22.80;46.29;99618.16;5011827;28;20083;-73
2021/07/22 05:55:34;;;;;;;17.40;9.63;;;;;;;22.88;46.66;99622.59;5010526;28;20503;-73
2021/07/22 05:57:59;;;;;;;15.65;9.15;;;;;;;22.95;46.23;99618.91;5009026;28;20045;-73
2021/07/22 06:00:25;;;;;;;14.73;10.25;;;;;;;23.05;46.25;99623.72;5008510;28;20041;-73
2021/07/22 06:02:53;;;;;;;15.98;8.73;;;;;;;23.07;45.58;99624.13;5011436;28;20087;-74
2021/07/22 06:05:19;;;;;;;28.73;12.68;;;;;;;23.20;46.02;99618.72;5009573;28;20033;-73
2021/07/22 06:07:45;;;;;;;15.68;10.75;;;;;;;23.34;45.77;99617.00;5010765;28;20092;-73
2021/07/22 06:10:12;;;;;;;17.55;9.77;;;;;;;23.47;45.00;99623.03;5011938;28;20038;-75
2021/07/22 06:12:39;;;;;;;16.42;9.27;;;;;;;23.47;45.53;99620.19;5009911;28;20026;-74
2021/07/22 06:15:05;;;;;;;13.05;7.95;;;;;;;23.56;44.34;99629.88;5011093;28;20117;-74
2021/07/22 06:17:34;;;;;;;13.63;8.98;;;;;;;23.58;45.03;99626.63;5009615;28;20061;-75
2021/07/22 06:20:00;;;;;;;11.93;8.02;;;;;;;23.74;44.87;99623.22;5011125;28;20037;-73
2021/07/22 06:22:26;;;;;;;24.67;10.80;;;;;;;23.87;43.96;99620.63;5011075;28;20026;-73
2021/07/22 06:24:51;;;;;;;14.18;7.72;;;;;;;23.98;43.32;99629.91;5011641;28;20394;-73
2021/07/22 06:27:17;;;;;;;13.80;7.28;;;;;;;23.90;43.39;99619.81;5010088;28;20411;-73
2021/07/22 06:29:42;;;;;;;14.60;7.65;;;;;;;23.84;43.17;99628.00;5009787;28;20411;-73
2021/07/22 06:32:08;;;;;;;9.50;7.75;;;;;;;23.95;43.19;99616.47;5011046;28;20037;-74
2021/07/22 06:34:33;;;;;;;12.45;7.55;;;;;;;23.93;42.89;99613.22;5010756;28;20033;-74
2021/07/22 06:36:59;;;;;;;8.95;6.63;;;;;;;24.06;43.41;99621.31;5012657;28;20069;-74
2021/07/22 06:39:24;;;;;;;12.23;7.28;;;;;;;24.25;42.97;99614.16;5011023;28;20033;-73
2021/07/22 06:41:56;;;;;;;13.07;8.10;;;;;;;24.35;43.18;99618.09;5009534;28;20038;-74
2021/07/22 06:44:22;;;;;;;12.60;7.72;;;;;;;24.43;42.44;99611.06;5009613;28;20022;-74
2021/07/22 06:46:47;;;;;;;10.70;6.97;;;;;;;24.52;42.06;99613.41;5008865;28;20068;-74
2021/07/22 06:49:12;;;;;;;14.48;7.25;;;;;;;24.68;41.57;99613.63;5007506;28;20033;-75
2021/07/22 06:51:38;;;;;;;8.32;6.57;;;;;;;24.78;41.83;99617.59;5010698;28;20037;-76
2021/07/22 06:54:05;;;;;;;7.60;6.70;;;;;;;24.73;41.67;99615.16;5003260;28;20495;-72
2021/07/22 06:56:31;;;;;;;9.98;7.20;;;;;;;24.93;40.68;99620.25;5004046;28;20542;-78
2021/07/22 06:58:57;;;;;;;8.65;6.95;;;;;;;24.97;40.82;99614.47;5007427;28;20084;-73
2021/07/22 07:01:23;;;;;;;12.00;7.18;;;;;;;25.10;40.82;99612.66;5009063;28;20034;-73
2021/07/22 07:03:49;;;;;;;9.35;7.75;;;;;;;25.07;40.61;99613.53;5009448;28;20034;-73
2021/07/22 07:06:14;;;;;;;8.95;6.90;;;;;;;25.26;40.57;99603.41;5009067;28;20124;-73
2021/07/22 07:08:39;;;;;;;7.28;6.45;;;;;;;25.19;40.12;99603.50;5004613;28;20023;-73
2021/07/22 07:11:08;;;;;;;8.57;6.07;;;;;;;25.29;39.33;99608.25;5008684;28;20029;-73
2021/07/22 07:13:34;;;;;;;11.68;6.72;;;;;;;25.42;37.88;99607.66;5009220;28;20204;-73
2021/07/22 07:16:04;;;;;;;7.05;6.35;;;;;;;25.31;38.75;99600.03;5008019;28;20532;-73
2021/07/22 07:18:29;;;;;;;9.03;6.67;;;;;;;25.28;39.10;99614.41;5009919;28;20038;-83
2021/07/22 07:20:54;;;;;;;6.53;5.75;;;;;;;25.43;38.47;99610.09;5008875;28;20063;-74
2021/07/22 07:23:20;;;;;;;9.32;6.50;;;;;;;25.61;37.80;99611.84;5007342;28;20030;-73
2021/07/22 07:25:45;;;;;;;9.18;6.50;;;;;;;25.72;37.64;99608.81;5007494;28;20034;-71
2021/07/22 07:28:12;;;;;;;8.98;6.45;;;;;;;25.93;37.92;99614.16;5008141;28;20022;-76
2021/07/22 07:30:37;;;;;;;11.18;6.43;;;;;;;25.85;39.13;99612.69;5006301;28;20026;-74
2021/07/22 07:33:04;;;;;;;109.93;16.60;;;;;;;25.90;37.86;99612.16;5007513;28;20558;-75
2021/07/22 07:35:30;;;;;;;10.65;6.13;;;;;;;25.98;37.04;99609.97;5006990;28;20066;-75
2021/07/22 07:37:55;;;;;;;10.13;5.97;;;;;;;25.94;36.38;99617.84;5008008;28;20491;-74
2021/07/22 07:40:21;;;;;;;7.35;6.28;;;;;;;25.90;37.83;99608.50;5009335;28;20098;-75
2021/07/22 07:42:46;;;;;;;11.23;6.70;;;;;;;25.89;37.08;99610.53;5021584;28;20033;-74
2021/07/22 07:45:12;;;;;;;7.18;6.03;;;;;;;25.86;36.61;99610.59;5008847;28;20034;-74
2021/07/22 07:47:37;;;;;;;19.60;6.70;;;;;;;26.02;37.32;99613.59;5008520;28;20487;-80
2021/07/22 07:50:03;;;;;;;10.15;6.93;;;;;;;26.10;37.21;99608.53;5005633;28;20030;-77
2021/07/22 07:52:30;;;;;;;9.55;6.05;;;;;;;26.12;37.08;99613.81;5007895;28;20032;-73
2021/07/22 07:54:56;;;;;;;7.30;5.38;;;;;;;26.12;37.25;99606.03;5027004;28;20077;-73
2021/07/22 07:57:21;;;;;;;19.60;11.80;;;;;;;26.35;37.21;99608.03;5025599;28;20045;-81
2021/07/22 07:59:47;;;;;;;9.80;5.53;;;;;;;26.47;36.75;99602.91;5010432;28;20029;-72
2021/07/22 08:02:16;;;;;;;6.45;5.20;;;;;;;26.45;36.43;99593.94;5010487;28;20420;-73
2021/07/22 08:04:42;;;;;;;8.43;6.18;;;;;;;26.41;36.02;99599.72;5009946;28;20021;-72
2021/07/22 08:07:07;;;;;;;8.85;5.72;;;;;;;26.33;35.98;99598.28;5024897;28;20045;-73
2021/07/22 08:09:33;;;;;;;6.45;5.38;;;;;;;26.38;35.92;99594.88;5013026;28;20034;-77
2021/07/22 08:11:58;;;;;;;16.70;5.85;;;;;;;26.29;36.29;99594.66;5012326;28;20026;-76
2021/07/22 08:14:24;;;;;;;10.13;5.82;;;;;;;26.10;37.05;99593.38;5012202;28;20030;-76
2021/07/22 08:16:50;;;;;;;11.93;5.63;;;;;;;26.11;36.72;99598.69;5009890;28;20057;-72
2021/07/22 08:19:16;;;;;;;8.18;5.45;;;;;;;26.25;36.66;99603.38;5012101;28;20081;-73
2021/07/22 08:21:41;;;;;;;28.13;6.63;;;;;;;26.41;37.16;99593.22;5012661;28;20533;-73
2021/07/22 08:24:07;;;;;;;12.90;6.60;;;;;;;26.37;36.45;99590.41;5013234;28;20014;-72
2021/07/22 08:26:33;;;;;;;10.23;5.85;;;;;;;26.44;36.63;99593.13;5012865;28;20164;-73
2021/07/22 08:28:58;;;;;;;8.13;5.30;;;;;;;26.63;36.00;99585.75;5012877;28;20092;-73
2021/07/22 08:31:24;;;;;;;9.38;5.45;;;;;;;26.73;36.31;99583.91;5011654;28;20100;-73
2021/07/22 08:33:50;;;;;;;9.98;4.63;;;;;;;26.88;36.71;99587.28;5011372;28;20037;-73
2021/07/22 08:36:16;;;;;;;12.60;5.28;;;;;;;27.01;37.56;99593.13;5007033;28;20026;-73
2021/07/22 08:38:41;;;;;;;11.88;6.10;;;;;;;27.11;35.74;99591.28;5012853;28;20388;-72
2021/07/22 08:41:11;;;;;;;6.78;4.70;;;;;;;27.19;36.00;99584.09;5012126;28;20488;-74
2021/07/22 08:43:38;;;;;;;19.35;6.07;;;;;;;27.29;35.47;99587.97;5027741;28;20034;-76
2021/07/22 08:46:05;;;;;;;6.65;4.63;;;;;;;27.49;34.04;99583.38;5012781;28;20034;-77
2021/07/22 08:48:36;;;;;;;10.70;4.88;;;;;;;27.72;34.49;99580.34;5012586;28;20049;-76
2021/07/22 08:51:03;;;;;;;14.85;5.25;;;;;;;27.86;33.70;99576.25;5003685;28;20168;-77
2021/07/22 08:53:28;;;;;;;7.88;5.38;;;;;;;27.59;33.10;99576.59;5012608;28;20045;-81
2021/07/22 08:55:58;;;;;;;12.75;4.55;;;;;;;27.65;33.70;99577.66;5012470;28;20415;-77
2021/07/22 08:58:26;;;;;;;7.60;4.82;;;;;;;27.52;33.17;99554.59;5011010;28;20080;-77
2021/07/22 09:00:54;;;;;;;12.15;5.93;;;;;;;27.51;33.90;99583.75;5011170;28;20050;-79
2021/07/22 09:03:19;;;;;;;5.50;4.10;;;;;;;27.27;33.35;99583.91;5012572;28;20033;-77
2021/07/22 09:05:45;;;;;;;11.50;4.80;;;;;;;27.35;33.30;99578.81;5027335;28;20030;-78
2021/07/22 09:08:10;;;;;;;4.28;3.85;;;;;;;27.59;33.12;99573.72;5014054;28;20030;-80
2021/07/22 09:10:36;;;;;;;7.15;3.75;;;;;;;27.85;32.56;99579.59;5010647;28;20026;-80
2021/07/22 09:13:02;;;;;;;4.57;3.92;;;;;;;27.89;32.06;99575.38;5012881;28;20030;-77
2021/07/22 09:15:33;;;;;;;8.57;4.13;;;;;;;27.82;32.20;99571.91;5010619;28;20057;-78
2021/07/22 09:17:59;;;;;;;6.65;5.05;;;;;;;27.87;32.30;99577.91;5010154;28;20100;-82
2021/07/22 09:20:32;;;;;;;8.80;4.22;;;;;;;27.87;31.90;99569.28;5010703;28;20038;-75
2021/07/22 09:23:00;;;;;;;5.80;3.88;;;;;;;27.89;31.82;99571.69;5010476;28;20033;-78
2021/07/22 09:25:47;;;;;;;9.05;4.40;;;;;;;27.87;31.82;99562.72;5012044;28;20065;-85
2021/07/22 09:28:18;;;;;;;4.95;3.97;;;;;;;27.87;31.53;99566.41;5026353;28;20466;-80
2021/07/22 09:31:01;;;;;;;4.57;4.18;;;;;;;27.79;31.47;99562.09;5011002;28;20022;-74
2021/07/22 09:33:40;;;;;;;4.75;3.58;;;;;;;27.79;31.45;99567.84;5011473;28;20029;-74
2021/07/22 09:36:08;;;;;;;7.93;3.95;;;;;;;27.66;32.67;99561.25;5003680;28;20026;-74
2021/07/22 09:38:34;;;;;;;5.10;4.03;;;;;;;27.69;32.53;99563.19;5011412;28;20034;-82
2021/07/22 09:41:00;;;;;;;7.38;3.85;;;;;;;27.70;32.66;99565.63;5010088;28;20045;-82
2021/07/22 09:43:39;;;;;;;10.27;4.30;;;;;;;27.68;32.73;99558.72;5011741;28;20540;-78
2021/07/22 09:46:05;;;;;;;8.43;4.30;;;;;;;27.66;32.80;99562.03;5005339;28;20038;-78
2021/07/22 09:48:31;;;;;;;6.38;3.92;;;;;;;27.65;32.45;99556.75;5009560;28;20095;-74
2021/07/22 09:50:56;;;;;;;8.73;3.88;;;;;;;27.67;32.89;99563.63;5011553;28;20022;-76
2021/07/22 09:53:23;;;;;;;6.47;3.53;;;;;;;27.65;32.67;99566.16;5011100;28;20018;-76
2021/07/22 09:55:53;;;;;;;5.65;3.67;;;;;;;27.61;32.89;99560.50;5007933;28;20029;-76
2021/07/22 09:58:20;;;;;;;6.85;3.22;;;;;;;27.58;33.52;99557.75;4999759;28;20025;-78
2021/07/22 10:00:55;;;;;;;4.13;3.58;;;;;;;27.50;33.29;99562.81;4999085;28;20506;-81
2021/07/22 10:03:21;;;;;;;4.85;3.85;;;;;;;27.50;33.09;99559.16;5013034;28;20029;-74
2021/07/22 10:05:55;;;;;;;5.43;3.75;;;;;;;27.55;33.13;99553.72;5008993;28;20413;-80
2021/07/22 10:08:24;;;;;;;6.20;4.18;;;;;;;27.64;33.55;99555.13;5001785;28;20030;-80
2021/07/22 10:10:51;;;;;;;8.25;4.18;;;;;;;27.74;33.28;99548.28;5005592;28;20025;-80
2021/07/22 10:13:22;;;;;;;5.05;4.18;;;;;;;27.55;32.96;99544.28;5025851;28;20052;-80
2021/07/22 10:15:48;;;;;;;9.18;3.80;;;;;;;27.61;33.50;99543.28;5007666;28;20030;-80
2021/07/22 10:18:14;;;;;;;4.40;3.80;;;;;;;27.70;33.14;99541.81;5009547;28;20049;-80
2021/07/22 10:20:43;;;;;;;4.40;4.00;;;;;;;27.73;32.60;99544.59;5010692;28;20503;-80
2021/07/22 10:23:11;;;;;;;5.75;3.88;;;;;;;27.97;32.99;99546.41;5009601;28;20057;-80
2021/07/22 10:25:36;;;;;;;4.07;3.67;;;;;;;28.12;32.49;99549.69;5009129;28;20049;-81
2021/07/22 10:28:02;;;;;;;6.85;4.30;;;;;;;27.97;32.46;99549.28;5006938;28;20116;-80
2021/07/22 10:30:28;;;;;;;7.15;4.05;;;;;;;27.92;32.76;99547.00;5010816;28;20037;-80
2021/07/22 10:33:00;;;;;;;5.20;4.00;;;;;;;28.05;33.50;99544.16;5007996;28;20036;-80
2021/07/22 10:35:30;;;;;;;5.15;3.65;;;;;;;28.15;32.81;99545.91;5009076;28;20477;-81
2021/07/22 10:38:02;;;;;;;5.63;3.75;;;;;;;28.20;32.50;99541.69;5003324;28;20026;-81
2021/07/22 10:40:48;;;;;;;4.95;3.65;;;;;;;28.29;32.25;99531.13;5010597;28;20042;-82
2021/07/22 10:43:34;;;;;;;4.50;3.70;;;;;;;28.39;32.18;99534.16;5004902;28;20033;-81
2021/07/22 10:46:01;;;;;;;13.60;3.78;;;;;;;28.33;32.62;99533.91;5008265;28;20036;-81
2021/07/22 10:48:27;;;;;;;7.70;3.28;;;;;;;28.38;32.05;99533.38;5008884;28;20029;-81
2021/07/22 10:50:55;;;;;;;4.78;3.60;;;;;;;28.45;31.23;99538.88;5010788;28;20033;-81
2021/07/22 10:53:41;;;;;;;8.27;3.83;;;;;;;28.77;30.42;99535.47;5025226;28;20041;-81
2021/07/22 10:56:10;;;;;;;8.18;3.70;;;;;;;28.70;30.45;99534.41;5009079;28;20034;-82
2021/07/22 10:58:35;;;;;;;3.47;3.03;;;;;;;28.48;29.64;99537.16;5025793;28;20400;-81
2021/07/22 11:01:02;;;;;;;6.07;3.00;;;;;;;28.45;30.31;99540.97;5010062;28;20040;-82
2021/07/22 11:03:34;;;;;;;6.25;3.88;;;;;;;28.53;29.69;99535.78;4998432;28;20579;-81
2021/07/22 11:06:03;;;;;;;4.28;3.20;;;;;;;28.39;29.96;99532.09;5018297;28;20031;-82
2021/07/22 11:08:30;;;;;;;7.13;3.13;;;;;;;28.29;30.42;99531.13;5020362;28;20053;-81
2021/07/22 11:11:07;;;;;;;3.40;3.03;;;;;;;28.33;30.43;99530.25;5010165;28;20022;-81
2021/07/22 11:13:35;;;;;;;4.85;3.28;;;;;;;28.33;31.28;99525.28;5009572;28;20029;-81
2021/07/22 11:16:11;;;;;;;6.60;3.78;;;;;;;28.38;31.80;99532.53;5008719;28;20030;-81
2021/07/22 11:18:40;;;;;;;11.98;5.38;;;;;;;28.46;30.42;99531.06;5010100;28;20046;-81
2021/07/22 11:21:07;;;;;;;6.68;4.78;;;;;;;28.50;29.93;99530.97;5009199;28;20040;-80